Time;durP1;ratioP1;P1;durP2;ratioP2;P2;SDS_P1;SDS_P2;PMS_P1;PMS_P2;Temp;Humidity;BMP_temperature;BMP_pressure;BME280_temperature;BME280_humidity;BME280_pressure;Samples;Min_cycle;Max_cycle;Signal;HPM_P1;HPM_P2
2021/11/08 00:00:44;;;;;;;18.50;3.78;;;7.70;98.30;;;;;;4992335;28;20096;-65
2021/11/08 00:03:12;;;;;;;12.90;2.60;;;7.70;98.30;;;;;;4995120;28;20049;-64
2021/11/08 00:05:43;;;;;;;14.40;2.65;;;7.70;98.40;;;;;;4991879;28;20325;-65
2021/11/08 00:08:10;;;;;;;9.70;2.47;;;7.70;98.30;;;;;;4992103;28;20036;-65
2021/11/08 00:10:36;;;;;;;17.63;3.03;;;7.70;98.20;;;;;;4985855;28;20041;-65
2021/11/08 00:13:05;;;;;;;10.70;2.30;;;7.70;98.10;;;;;;4990668;28;20445;-65
2021/11/08 00:18:17;;;;;;;19.83;3.20;;;7.70;98.20;;;;;;4994236;28;20068;-65
2021/11/08 00:20:47;;;;;;;21.48;2.95;;;7.70;98.20;;;;;;4991943;28;20037;-65
2021/11/08 00:23:14;;;;;;;21.40;3.20;;;7.70;98.30;;;;;;5001213;28;20026;-65
2021/11/08 00:25:41;;;;;;;18.50;3.22;;;7.70;98.30;;;;;;4994311;28;20029;-65
2021/11/08 00:28:18;;;;;;;21.75;3.00;;;7.70;98.30;;;;;;4987200;28;20606;-65
2021/11/08 00:30:44;;;;;;;17.40;2.67;;;7.80;98.40;;;;;;4994613;28;20037;-64
2021/11/08 00:33:15;;;;;;;18.23;2.85;;;7.80;98.20;;;;;;4968258;28;20026;-64
2021/11/08 00:35:44;;;;;;;;;;;7.80;98.20;;;;;;4992819;28;20018;-64
2021/11/08 00:38:10;;;;;;;15.18;3.30;;;7.80;98.10;;;;;;4996287;28;20325;-65
2021/11/08 00:40:37;;;;;;;14.52;3.05;;;7.80;98.10;;;;;;4995030;28;20514;-65
2021/11/08 00:43:04;;;;;;;20.98;3.00;;;7.70;98.00;;;;;;4993556;28;20025;-64
2021/11/08 00:45:29;;;;;;;17.33;2.75;;;7.70;98.00;;;;;;4999402;28;20038;-65
2021/11/08 00:47:56;;;;;;;20.15;2.85;;;7.70;98.10;;;;;;5001886;28;20438;-65
2021/11/08 00:50:22;;;;;;;18.35;3.22;;;7.70;98.00;;;;;;4998688;28;20034;-65
2021/11/08 00:52:48;;;;;;;20.50;3.63;;;7.70;98.00;;;;;;5002295;28;20022;-65
2021/11/08 00:55:15;;;;;;;16.98;2.65;;;7.70;98.00;;;;;;4990278;28;20439;-64
2021/11/08 00:57:43;;;;;;;22.95;3.13;;;7.60;98.00;;;;;;4981085;28;20112;-65
2021/11/08 01:00:12;;;;;;;22.33;3.38;;;7.70;98.00;;;;;;4996963;28;20030;-64
2021/11/08 01:02:38;;;;;;;15.68;2.58;;;7.70;97.90;;;;;;4992417;28;20066;-64
2021/11/08 01:05:05;;;;;;;15.00;3.20;;;7.70;97.90;;;;;;4984903;28;20401;-65
2021/11/08 01:07:31;;;;;;;15.02;2.95;;;7.70;97.90;;;;;;4977085;28;20121;-65
2021/11/08 01:09:58;;;;;;;12.65;3.05;;;7.70;98.00;;;;;;4994959;28;20486;-65
2021/11/08 01:12:25;;;;;;;17.42;3.03;;;7.60;97.90;;;;;;4997374;28;20074;-65
2021/11/08 01:14:51;;;;;;;17.75;3.08;;;7.60;98.00;;;;;;4994116;28;20413;-64
2021/11/08 01:17:16;;;;;;;16.35;2.92;;;7.60;98.00;;;;;;4990131;28;20104;-65
2021/11/08 01:19:42;;;;;;;18.38;2.72;;;7.60;97.90;;;;;;4980622;28;20033;-65
2021/11/08 01:22:18;;;;;;;21.98;2.95;;;7.50;97.80;;;;;;4990590;28;20501;-65
2021/11/08 01:24:54;;;;;;;17.15;2.78;;;7.50;97.80;;;;;;4994887;28;20030;-65
2021/11/08 01:27:32;;;;;;;12.60;2.35;;;7.50;97.80;;;;;;4991476;28;20543;-64
2021/11/08 01:29:59;;;;;;;16.58;2.60;;;7.50;97.70;;;;;;4999576;28;20127;-64
2021/11/08 01:32:24;;;;;;;14.30;2.50;;;7.50;97.70;;;;;;4988998;28;20081;-64
2021/11/08 01:34:50;;;;;;;17.88;3.13;;;7.60;97.80;;;;;;4990157;28;20034;-65
2021/11/08 01:37:20;;;;;;;12.73;2.38;;;7.50;97.70;;;;;;4997185;28;20034;-65
2021/11/08 01:39:46;;;;;;;17.52;2.08;;;7.50;97.60;;;;;;4999371;28;20258;-64
2021/11/08 01:42:13;;;;;;;19.88;2.85;;;7.50;97.60;;;;;;4995599;28;20040;-65
2021/11/08 01:44:39;;;;;;;14.18;2.10;;;7.50;97.60;;;;;;4993527;28;20073;-64
2021/11/08 01:47:05;;;;;;;16.25;2.30;;;7.60;97.60;;;;;;4999368;28;20022;-65
2021/11/08 01:49:32;;;;;;;15.85;2.60;;;7.60;97.70;;;;;;4993922;28;20029;-65
2021/11/08 01:51:58;;;;;;;15.30;2.10;;;7.60;97.70;;;;;;4994190;28;20026;-65
2021/11/08 01:54:25;;;;;;;13.25;3.33;;;7.60;97.70;;;;;;4999439;28;20454;-65
2021/11/08 01:56:53;;;;;;;19.10;2.45;;;7.50;97.80;;;;;;4993152;28;20234;-65
2021/11/08 01:59:20;;;;;;;16.33;2.80;;;7.60;97.80;;;;;;4995624;28;20045;-65
2021/11/08 02:01:46;;;;;;;17.02;2.85;;;7.60;97.80;;;;;;4971659;28;20461;-65
2021/11/08 02:04:11;;;;;;;10.18;2.28;;;7.60;97.70;;;;;;4994472;28;20033;-64
2021/11/08 02:06:38;;;;;;;19.83;3.40;;;7.50;97.70;;;;;;4998243;28;20018;-64
2021/11/08 02:09:05;;;;;;;19.80;2.55;;;7.60;97.70;;;;;;5006984;28;20022;-64
2021/11/08 02:11:32;;;;;;;12.63;2.40;;;7.60;97.60;;;;;;4980638;28;20037;-64
2021/11/08 02:13:58;;;;;;;20.30;2.80;;;7.60;97.70;;;;;;4990156;28;20033;-65
2021/11/08 02:16:23;;;;;;;11.45;2.55;;;7.60;97.80;;;;;;4994575;28;20030;-64
2021/11/08 02:18:49;;;;;;;16.75;2.63;;;7.60;98.10;;;;;;4997089;28;20429;-64
2021/11/08 02:21:15;;;;;;;18.38;2.38;;;7.50;98.10;;;;;;4993034;28;20596;-64
2021/11/08 02:23:42;;;;;;;8.30;2.10;;;7.50;98.30;;;;;;4990734;28;20030;-64
2021/11/08 02:26:15;;;;;;;18.88;2.53;;;7.50;98.40;;;;;;4991916;28;20053;-65
2021/11/08 02:28:44;;;;;;;10.43;2.38;;;7.50;98.50;;;;;;4995939;28;20061;-65
2021/11/08 02:31:13;;;;;;;15.68;2.28;;;7.50;98.50;;;;;;5001801;28;20458;-64
2021/11/08 02:33:40;;;;;;;13.70;2.45;;;7.50;98.50;;;;;;4985049;28;20026;-64
2021/11/08 02:36:06;;;;;;;15.15;2.45;;;7.50;98.50;;;;;;4998876;28;20203;-65
2021/11/08 02:38:34;;;;;;;21.35;2.88;;;7.50;98.50;;;;;;4998552;28;20615;-64
2021/11/08 02:41:00;;;;;;;19.02;2.95;;;7.50;98.50;;;;;;4995168;28;20398;-64
2021/11/08 02:43:27;;;;;;;14.23;2.13;;;7.50;98.50;;;;;;5000129;23;20567;-81
2021/11/08 02:46:15;;;;;;;17.30;2.75;;;7.50;98.50;;;;;;4950045;28;20016;-81
2021/11/08 02:48:42;;;;;;;15.50;2.60;;;7.50;98.50;;;;;;4970130;28;20489;-80
2021/11/08 02:53:38;;;;;;;13.77;2.47;;;7.50;98.50;;;;;;4950703;28;20429;-81
2021/11/08 02:56:06;;;;;;;9.98;2.47;;;7.50;98.50;;;;;;4967073;28;20059;-81
2021/11/08 02:58:31;;;;;;;14.15;2.92;;;7.40;98.50;;;;;;4950497;28;20039;-81
2021/11/08 03:00:57;;;;;;;14.77;1.98;;;7.40;98.50;;;;;;4970710;28;20041;-80
2021/11/08 03:03:39;;;;;;;14.60;2.53;;;7.40;98.40;;;;;;4965798;28;20042;-80
2021/11/08 03:06:19;;;;;;;15.00;2.05;;;7.40;98.40;;;;;;4968727;28;20038;-81
2021/11/08 03:08:45;;;;;;;15.38;2.50;;;7.40;98.30;;;;;;4964626;28;20031;-81
2021/11/08 03:11:11;;;;;;;14.18;2.33;;;7.40;98.30;;;;;;4970613;28;20080;-80
2021/11/08 03:13:38;;;;;;;18.42;2.85;;;7.40;98.30;;;;;;4967428;28;20093;-80
2021/11/08 03:16:14;;;;;;;17.83;3.00;;;7.40;98.20;;;;;;4970511;28;20027;-79
2021/11/08 03:18:42;;;;;;;12.27;1.70;;;7.40;98.30;;;;;;4950012;28;20031;-78
2021/11/08 03:21:16;;;;;;;15.25;2.55;;;7.40;98.30;;;;;;4970967;28;20023;-80
2021/11/08 03:23:44;;;;;;;15.30;2.58;;;7.40;98.40;;;;;;4964762;28;20023;-79
2021/11/08 03:28:38;;;;;;;21.85;3.00;;;7.40;98.30;;;;;;4967053;28;20396;-80
2021/11/08 03:31:08;;;;;;;20.05;3.17;;;7.40;98.30;;;;;;4969313;28;20476;-80
2021/11/08 03:33:34;;;;;;;17.65;3.15;;;7.40;98.10;;;;;;4967288;28;20544;-80
2021/11/08 03:36:01;;;;;;;15.95;2.33;;;7.40;98.20;;;;;;4963039;28;20047;-80
2021/11/08 03:38:26;;;;;;;19.13;3.03;;;7.40;98.20;;;;;;4948607;28;20050;-80
2021/11/08 03:40:52;;;;;;;13.90;2.50;;;7.40;98.10;;;;;;4969277;28;20026;-80
2021/11/08 03:43:20;;;;;;;20.20;3.10;;;7.40;98.10;;;;;;4971647;28;20039;-79
2021/11/08 03:45:47;;;;;;;20.35;3.28;;;7.30;98.10;;;;;;4971330;28;20064;-80
2021/11/08 03:48:14;;;;;;;17.60;2.60;;;7.30;98.10;;;;;;4975158;28;20034;-80
2021/11/08 03:50:40;;;;;;;14.35;2.00;;;7.30;98.20;;;;;;4974380;28;20038;-79
2021/11/08 03:53:07;;;;;;;15.52;2.47;;;7.30;98.20;;;;;;4969760;28;20022;-80
2021/11/08 03:55:33;;;;;;;13.57;2.50;;;7.30;98.10;;;;;;4973583;28;20053;-79
2021/11/08 03:57:59;;;;;;;19.17;2.78;;;7.30;98.00;;;;;;4953728;28;20674;-80
2021/11/08 04:00:26;;;;;;;21.45;2.67;;;7.20;98.00;;;;;;4969894;28;20515;-80
2021/11/08 04:02:54;;;;;;;13.48;2.55;;;7.30;98.00;;;;;;4972310;28;20030;-79
2021/11/08 04:05:23;;;;;;;18.42;2.72;;;7.20;97.90;;;;;;4964813;28;20136;-79
2021/11/08 04:07:50;;;;;;;12.50;2.50;;;7.20;97.80;;;;;;4972317;28;20504;-79
2021/11/08 04:10:17;;;;;;;15.77;2.30;;;7.30;97.80;;;;;;4972990;28;20035;-80
2021/11/08 04:12:43;;;;;;;13.13;2.58;;;7.20;97.70;;;;;;4962716;28;20027;-80
2021/11/08 04:15:12;;;;;;;9.10;1.90;;;7.20;97.60;;;;;;4963715;28;20022;-80
2021/11/08 04:17:43;;;;;;;16.48;3.35;;;7.20;97.50;;;;;;4964863;28;20020;-80
2021/11/08 04:20:10;;;;;;;20.65;3.20;;;7.10;97.40;;;;;;4956620;28;20031;-80
2021/11/08 04:22:36;;;;;;;15.75;2.70;;;7.10;97.50;;;;;;4972078;28;20026;-80
2021/11/08 04:25:03;;;;;;;21.13;2.33;;;7.00;97.70;;;;;;4968671;28;20029;-79
2021/11/08 04:27:28;;;;;;;15.80;2.85;;;7.00;97.70;;;;;;4957775;28;20033;-80
2021/11/08 04:29:54;;;;;;;17.77;2.72;;;7.00;97.50;;;;;;4969817;28;20412;-79
2021/11/08 04:32:22;;;;;;;17.23;2.80;;;7.00;97.60;;;;;;4971354;28;20263;-80
2021/11/08 04:34:52;;;;;;;18.75;3.70;;;6.90;97.60;;;;;;4966723;28;20031;-80
2021/11/08 04:37:48;;;;;;;19.23;2.70;;;6.80;97.70;;;;;;4975943;28;20018;-80
2021/11/08 04:50:46;;;;;;;17.20;2.28;;;6.90;97.90;;;;;;4970111;28;20084;-80
2021/11/08 04:56:38;;;;;;;15.40;2.92;;;7.00;97.70;;;;;;4953440;28;20117;-79
2021/11/08 05:21:04;;;;;;;15.85;2.38;;;7.00;97.60;;;;;;4968290;28;20109;-79
2021/11/08 05:24:23;;;;;;;20.65;3.13;;;6.60;98.10;;;;;;4968252;28;20522;-80
2021/11/08 05:32:15;;;;;;;17.58;2.67;;;6.80;98.10;;;;;;4970213;28;20732;-81
2021/11/08 05:34:40;;;;;;;22.65;2.85;;;6.80;98.00;;;;;;4967667;28;20034;-81
2021/11/08 05:37:08;;;;;;;18.92;2.50;;;6.90;97.80;;;;;;4955160;28;20410;-81
2021/11/08 05:39:36;;;;;;;13.82;2.00;;;6.90;97.70;;;;;;4972147;28;20031;-80
2021/11/08 05:42:03;;;;;;;23.52;2.28;;;6.90;97.60;;;;;;4963812;28;20511;-80
2021/11/08 05:44:29;;;;;;;17.27;2.63;;;6.90;97.50;;;;;;4967059;28;20034;-81
2021/11/08 05:46:55;;;;;;;13.30;1.98;;;6.90;97.50;;;;;;4967963;28;20110;-80
2021/11/08 05:49:21;;;;;;;17.58;2.92;;;6.90;97.50;;;;;;4971458;28;20122;-81
2021/11/08 05:51:46;;;;;;;18.13;2.53;;;6.80;97.50;;;;;;4972703;28;20030;-80
2021/11/08 05:54:12;;;;;;;12.68;2.15;;;6.80;97.50;;;;;;4964344;28;20043;-81
2021/11/08 06:48:56;;;;;;;13.93;2.70;;;6.00;98.60;;;;;;4963530;28;20057;-79
2021/11/08 06:51:06;;;;;;;19.27;3.42;;;5.90;98.50;;;;;;4962046;28;20499;-80
2021/11/08 06:53:32;;;;;;;19.50;2.67;;;5.90;98.60;;;;;;4965270;28;20067;-80
2021/11/08 06:55:59;;;;;;;23.70;3.28;;;5.90;98.60;;;;;;4948925;28;20031;-80
2021/11/08 06:58:27;;;;;;;23.88;3.08;;;6.00;98.60;;;;;;4954726;28;20023;-80
2021/11/08 07:00:54;;;;;;;15.25;3.15;;;5.90;98.60;;;;;;4966163;28;20027;-80
2021/11/08 07:03:20;;;;;;;15.73;2.63;;;5.90;98.60;;;;;;4967947;28;20034;-80
2021/11/08 07:05:46;;;;;;;19.75;3.30;;;5.80;98.60;;;;;;4964628;28;20034;-80
2021/11/08 07:08:11;;;;;;;18.58;2.70;;;5.80;98.60;;;;;;4950683;28;20037;-81
2021/11/08 07:10:38;;;;;;;18.15;2.90;;;5.80;98.60;;;;;;4945923;28;20019;-78
2021/11/08 07:13:05;;;;;;;12.45;2.50;;;5.80;98.70;;;;;;4968797;28;20084;-80
2021/11/08 07:15:30;;;;;;;19.08;2.70;;;5.80;98.70;;;;;;4957485;28;20095;-81
2021/11/08 07:17:56;;;;;;;13.40;2.60;;;5.80;98.70;;;;;;4962043;28;20031;-81
2021/11/08 07:20:23;;;;;;;18.23;2.75;;;5.80;98.70;;;;;;4971042;28;20050;-81
2021/11/08 07:22:49;;;;;;;13.07;2.47;;;5.80;98.60;;;;;;4970540;28;20038;-81
2021/11/08 07:25:15;;;;;;;15.25;2.72;;;5.80;98.60;;;;;;4969191;28;20459;-81
2021/11/08 07:27:41;;;;;;;18.77;2.55;;;5.80;98.70;;;;;;4974810;28;20523;-79
2021/11/08 07:30:08;;;;;;;13.13;2.97;;;5.80;98.60;;;;;;4960117;28;20034;-80
2021/11/08 07:32:34;;;;;;;22.08;3.03;;;5.80;98.60;;;;;;4972606;28;20499;-80
2021/11/08 07:35:00;;;;;;;19.08;2.67;;;5.80;98.60;;;;;;4965160;28;20116;-81
2021/11/08 07:37:25;;;;;;;14.20;2.60;;;5.90;98.50;;;;;;4954808;28;20034;-80
2021/11/08 07:39:52;;;;;;;13.98;2.78;;;5.90;98.50;;;;;;4965377;28;20412;-80
2021/11/08 07:42:18;;;;;;;14.15;2.78;;;6.00;98.50;;;;;;4970022;28;20039;-81
2021/11/08 07:44:44;;;;;;;18.38;2.63;;;6.00;98.40;;;;;;4976675;28;20110;-80
2021/11/08 07:47:10;;;;;;;14.48;2.20;;;6.10;98.40;;;;;;4957549;28;20061;-81
2021/11/08 07:49:36;;;;;;;12.90;2.28;;;6.00;98.30;;;;;;4972545;28;20046;-80
2021/11/08 07:52:03;;;;;;;16.25;2.47;;;6.10;98.20;;;;;;4973807;28;20312;-80
2021/11/08 07:54:31;;;;;;;12.73;2.35;;;6.10;98.10;;;;;;4961781;28;20034;-80
2021/11/08 07:56:57;;;;;;;16.60;2.10;;;6.10;98.10;;;;;;4968401;28;20432;-80
2021/11/08 07:59:23;;;;;;;19.08;2.00;;;6.20;97.90;;;;;;4972758;28;20110;-81
2021/11/08 08:01:49;;;;;;;19.73;2.15;;;6.30;98.00;;;;;;4972129;28;20058;-80
2021/11/08 08:04:15;;;;;;;15.05;2.22;;;6.50;97.80;;;;;;4953629;28;20042;-80
2021/11/08 08:06:41;;;;;;;17.85;2.70;;;6.60;97.70;;;;;;4973871;28;20038;-81
2021/11/08 08:09:07;;;;;;;17.63;2.75;;;6.60;97.40;;;;;;4960155;28;20465;-81
2021/11/08 08:11:32;;;;;;;12.65;2.72;;;6.60;97.00;;;;;;4955584;28;20034;-81
2021/11/08 08:13:58;;;;;;;17.20;2.35;;;6.60;97.00;;;;;;4948121;28;20042;-80
2021/11/08 08:16:23;;;;;;;9.90;2.50;;;6.60;96.90;;;;;;4973829;28;20287;-79
2021/11/08 08:18:51;;;;;;;17.80;2.47;;;6.70;96.90;;;;;;4965303;28;20531;-81
2021/11/08 08:21:18;;;;;;;10.82;2.15;;;6.60;96.70;;;;;;4967779;28;20429;-80
2021/11/08 08:23:44;;;;;;;15.57;2.20;;;6.60;96.90;;;;;;4964694;28;20023;-81
2021/11/08 08:26:11;;;;;;;14.63;2.70;;;6.70;96.90;;;;;;4978093;28;20108;-81
2021/11/08 08:28:38;;;;;;;14.48;2.08;;;6.70;96.90;;;;;;4968205;28;20035;-81
2021/11/08 08:31:04;;;;;;;12.48;2.15;;;6.80;96.80;;;;;;4969281;28;20027;-80
2021/11/08 08:33:31;;;;;;;16.83;2.50;;;6.90;96.80;;;;;;4965774;28;20161;-81
2021/11/08 08:35:57;;;;;;;11.30;2.55;;;7.00;96.70;;;;;;4966636;28;20055;-80
2021/11/08 08:38:23;;;;;;;15.10;1.85;;;7.10;96.30;;;;;;4959098;28;20057;-80
2021/11/08 08:40:50;;;;;;;10.65;2.28;;;7.20;96.30;;;;;;4954474;28;20062;-80
2021/11/08 08:43:17;;;;;;;12.18;2.15;;;7.20;96.10;;;;;;4960422;23;20182;-66
2021/11/08 08:45:43;;;;;;;14.88;2.30;;;7.40;95.80;;;;;;4961312;28;20509;-66
2021/11/08 08:48:11;;;;;;;14.30;1.85;;;7.40;95.70;;;;;;4956409;28;20320;-66
2021/11/08 08:50:37;;;;;;;13.73;2.50;;;7.40;95.60;;;;;;4964646;28;20039;-66
2021/11/08 08:53:03;;;;;;;10.73;1.75;;;7.40;95.10;;;;;;4922794;28;20475;-66
2021/11/08 08:55:28;;;;;;;14.50;1.95;;;7.50;95.00;;;;;;4937194;28;20047;-65
2021/11/08 08:57:55;;;;;;;15.75;2.55;;;7.50;95.20;;;;;;4947309;28;20069;-66
2021/11/08 09:00:22;;;;;;;10.75;2.03;;;7.60;94.70;;;;;;4935532;28;20104;-67
2021/11/08 09:02:53;;;;;;;10.82;1.88;;;7.90;94.90;;;;;;4930189;28;20351;-66
2021/11/08 09:05:19;;;;;;;;;;;8.10;94.70;;;;;;4930813;28;20083;-67
2021/11/08 09:07:45;;;;;;;11.73;2.20;;;8.30;93.70;;;;;;4924752;28;19919;-65
2021/11/08 09:10:11;;;;;;;13.02;2.30;;;8.50;94.10;;;;;;4943045;28;20027;-66
2021/11/08 09:12:39;;;;;;;11.90;2.30;;;8.50;93.30;;;;;;4944380;28;20097;-67
2021/11/08 09:15:06;;;;;;;10.88;2.30;;;8.40;93.30;;;;;;4952182;28;20023;-67
2021/11/08 09:17:31;;;;;;;15.13;2.42;;;8.40;93.70;;;;;;4962305;28;20034;-67
2021/11/08 09:19:58;;;;;;;8.82;1.90;;;8.40;93.60;;;;;;4949339;28;20030;-66
2021/11/08 09:22:26;;;;;;;23.15;2.90;;;8.40;93.30;;;;;;4938396;28;20028;-66
2021/11/08 09:24:52;;;;;;;10.15;2.05;;;8.60;92.90;;;;;;4952466;28;20645;-67
2021/11/08 09:27:18;;;;;;;12.02;1.85;;;8.70;93.10;;;;;;4949255;28;20162;-67
2021/11/08 09:29:43;;;;;;;10.93;2.08;;;8.70;92.90;;;;;;4938071;28;20039;-65
2021/11/08 09:32:09;;;;;;;6.75;2.03;;;8.60;92.60;;;;;;4956613;28;20533;-65
2021/11/08 09:34:40;;;;;;;10.90;2.10;;;8.50;92.60;;;;;;4959375;28;20538;-65
2021/11/08 09:37:10;;;;;;;12.13;2.08;;;8.50;92.40;;;;;;4946688;28;20023;-66
2021/11/08 09:39:39;;;;;;;10.30;1.90;;;8.40;92.50;;;;;;4949837;28;20218;-66
2021/11/08 09:42:09;;;;;;;12.27;2.17;;;8.40;92.70;;;;;;4957771;28;20037;-66
2021/11/08 09:44:35;;;;;;;13.38;2.22;;;8.40;93.00;;;;;;4959321;28;20114;-66
2021/11/08 09:47:01;;;;;;;9.90;2.03;;;8.50;93.20;;;;;;4954445;28;20023;-66
2021/11/08 09:49:28;;;;;;;12.18;1.85;;;8.60;93.40;;;;;;4942741;28;20027;-66
2021/11/08 09:51:54;;;;;;;15.30;2.20;;;8.70;92.70;;;;;;4964450;28;20031;-66
2021/11/08 09:54:27;;;;;;;9.20;1.70;;;8.80;93.00;;;;;;4949272;28;20031;-67
2021/11/08 09:56:55;;;;;;;10.82;1.85;;;8.80;92.60;;;;;;4954201;28;20023;-67
2021/11/08 09:59:21;;;;;;;9.02;2.20;;;8.80;92.40;;;;;;4953630;28;20371;-66
2021/11/08 10:01:49;;;;;;;11.18;1.80;;;8.70;92.10;;;;;;4963204;28;20033;-67
2021/11/08 10:04:15;;;;;;;15.05;2.05;;;8.70;92.50;;;;;;4961318;28;20041;-67
2021/11/08 10:06:41;;;;;;;11.35;2.03;;;8.70;93.00;;;;;;4943707;28;20023;-67
2021/11/08 10:09:09;;;;;;;10.45;2.00;;;8.70;92.90;;;;;;4941370;28;20407;-67
2021/11/08 10:11:37;;;;;;;17.73;2.30;;;8.70;92.70;;;;;;4962196;28;20122;-67
2021/11/08 10:14:04;;;;;;;16.30;1.95;;;8.70;92.80;;;;;;4952907;28;20109;-66
2021/11/08 10:16:34;;;;;;;11.15;1.98;;;8.70;92.70;;;;;;4950894;28;20023;-66
2021/11/08 10:19:03;;;;;;;13.63;1.90;;;8.60;92.90;;;;;;4951412;28;20024;-67
2021/11/08 10:21:42;;;;;;;13.57;2.38;;;8.60;93.20;;;;;;4968806;28;20743;-67
2021/11/08 10:24:10;;;;;;;14.82;2.05;;;8.60;93.30;;;;;;4947710;28;20110;-67
2021/11/08 10:26:37;;;;;;;7.50;1.52;;;8.60;93.40;;;;;;4954539;28;20031;-66
2021/11/08 10:29:17;;;;;;;9.18;1.83;;;8.60;93.50;;;;;;4951679;28;20090;-67
2021/11/08 10:31:46;;;;;;;13.80;2.58;;;8.60;93.10;;;;;;4961804;28;20102;-66
2021/11/08 10:34:13;;;;;;;14.30;2.25;;;8.70;92.40;;;;;;4960993;28;20037;-66
2021/11/08 10:36:39;;;;;;;10.15;1.88;;;8.80;93.10;;;;;;4962869;28;20126;-67
2021/11/08 10:39:09;;;;;;;11.60;2.80;;;8.80;92.80;;;;;;4953209;28;20035;-66
2021/11/08 10:41:38;;;;;;;9.98;2.22;;;9.00;93.30;;;;;;4947835;28;20079;-67
2021/11/08 10:44:22;;;;;;;16.08;2.17;;;9.00;92.20;;;;;;4939674;28;20299;-66
2021/11/08 10:46:57;;;;;;;9.70;1.80;;;9.00;92.20;;;;;;4950359;28;20050;-67
2021/11/08 10:49:25;;;;;;;10.90;1.80;;;9.10;91.90;;;;;;4953504;28;20023;-67
2021/11/08 10:51:54;;;;;;;12.50;1.80;;;9.00;91.40;;;;;;4956193;28;20023;-66
2021/11/08 10:54:31;;;;;;;11.25;2.25;;;9.10;91.60;;;;;;4959946;28;20027;-67
2021/11/08 10:57:02;;;;;;;13.77;2.28;;;9.00;91.20;;;;;;4967275;28;20049;-67
2021/11/08 10:59:37;;;;;;;8.10;1.90;;;9.10;92.10;;;;;;4929109;28;20172;-67
2021/11/08 11:02:07;;;;;;;11.07;1.73;;;9.00;91.90;;;;;;4958153;28;20534;-66
2021/11/08 11:04:44;;;;;;;8.80;1.50;;;9.00;92.60;;;;;;4959250;28;20553;-66
2021/11/08 11:07:17;;;;;;;8.88;1.75;;;9.00;92.90;;;;;;4959069;28;20482;-66
2021/11/08 11:09:43;;;;;;;12.95;2.45;;;8.80;93.30;;;;;;4956016;28;20042;-66
2021/11/08 11:12:21;;;;;;;12.20;2.10;;;8.80;93.90;;;;;;4957750;28;20042;-67
2021/11/08 11:14:56;;;;;;;7.80;2.15;;;8.70;94.00;;;;;;4952408;28;20483;-66
2021/11/08 11:17:26;;;;;;;14.27;2.67;;;8.70;94.10;;;;;;4947362;28;20044;-66
2021/11/08 11:20:05;;;;;;;11.30;2.47;;;8.80;94.70;;;;;;4945700;28;21326;-66
2021/11/08 11:22:31;;;;;;;12.65;2.35;;;8.60;94.50;;;;;;4954905;28;20074;-66
2021/11/08 11:24:57;;;;;;;11.68;2.95;;;8.70;94.90;;;;;;4945727;28;20522;-67
2021/11/08 11:27:27;;;;;;;9.85;2.30;;;8.70;95.00;;;;;;4951081;28;20317;-67
2021/11/08 11:30:05;;;;;;;10.15;2.38;;;8.70;94.90;;;;;;4946705;28;20038;-66
2021/11/08 11:32:31;;;;;;;9.65;2.38;;;8.70;94.90;;;;;;4950754;28;20031;-66
2021/11/08 11:34:57;;;;;;;12.68;3.05;;;8.70;94.90;;;;;;4954886;28;20108;-66
2021/11/08 11:37:27;;;;;;;13.93;2.53;;;8.70;94.70;;;;;;4934212;28;20023;-66
2021/11/08 11:40:10;;;;;;;9.75;2.92;;;8.80;94.80;;;;;;4944967;28;20374;-66
2021/11/08 11:42:48;;;;;;;10.32;2.95;;;8.80;94.60;;;;;;4950271;28;20070;-66
2021/11/08 11:45:15;;;;;;;13.55;3.40;;;8.80;94.90;;;;;;4951128;28;20119;-66
2021/11/08 11:47:41;;;;;;;15.40;3.92;;;8.90;95.00;;;;;;4951169;28;20086;-66
2021/11/08 11:50:08;;;;;;;11.48;4.35;;;8.80;95.30;;;;;;4943388;28;20414;-67
2021/11/08 11:52:41;;;;;;;12.27;3.88;;;8.90;95.60;;;;;;4949700;28;20480;-66
2021/11/08 11:55:08;;;;;;;10.88;3.40;;;8.80;95.90;;;;;;4944463;28;20054;-67
2021/11/08 11:57:34;;;;;;;15.85;3.72;;;8.70;96.20;;;;;;4955750;28;20465;-66
2021/11/08 11:59:59;;;;;;;13.43;4.25;;;8.70;96.40;;;;;;4951165;28;20027;-66
2021/11/08 12:02:26;;;;;;;15.60;3.75;;;8.60;96.60;;;;;;4934801;28;20122;-66
2021/11/08 12:04:52;;;;;;;12.10;4.20;;;8.60;96.70;;;;;;4943487;28;20031;-66
2021/11/08 12:07:17;;;;;;;11.00;3.60;;;8.70;96.80;;;;;;4960561;28;20027;-66
2021/11/08 12:09:43;;;;;;;15.85;4.47;;;8.60;96.80;;;;;;4945589;28;20046;-66
2021/11/08 12:12:09;;;;;;;13.75;4.32;;;8.70;96.70;;;;;;4954629;28;20412;-66
2021/11/08 12:14:36;;;;;;;11.65;4.30;;;8.70;96.70;;;;;;4955405;28;20036;-66
2021/11/08 12:17:13;;;;;;;12.63;5.03;;;8.70;96.50;;;;;;4952065;28;20553;-67
2021/11/08 12:19:41;;;;;;;17.50;5.47;;;8.70;96.40;;;;;;4950313;28;20015;-67
2021/11/08 12:22:15;;;;;;;17.35;5.50;;;8.70;96.30;;;;;;4953368;28;20371;-67
2021/11/08 12:24:41;;;;;;;9.40;4.38;;;8.80;96.40;;;;;;4961398;28;20042;-66
2021/11/08 12:27:09;;;;;;;10.95;5.07;;;8.80;96.30;;;;;;4948499;28;20454;-66
2021/11/08 12:29:50;;;;;;;9.18;4.05;;;8.80;96.40;;;;;;4942811;28;20022;-66
2021/11/08 12:32:17;;;;;;;10.13;4.03;;;8.80;96.40;;;;;;4953143;28;20037;-66
2021/11/08 12:34:47;;;;;;;12.18;4.38;;;8.90;96.50;;;;;;4954616;28;20099;-67
2021/11/08 12:37:14;;;;;;;11.75;4.68;;;8.80;96.50;;;;;;4956008;28;20126;-66
2021/11/08 12:39:41;;;;;;;12.40;4.90;;;8.80;96.40;;;;;;4944750;28;20375;-66
2021/11/08 12:42:12;;;;;;;12.02;5.00;;;8.90;96.60;;;;;;4953791;28;20026;-66
2021/11/08 12:44:44;;;;;;;10.45;4.95;;;8.90;96.60;;;;;;4949154;28;20933;-66
2021/11/08 12:47:12;;;;;;;12.77;5.53;;;8.90;96.60;;;;;;4950350;28;20224;-67
2021/11/08 12:49:49;;;;;;;11.57;4.63;;;8.80;96.80;;;;;;4932378;28;20263;-67
2021/11/08 12:52:19;;;;;;;12.63;5.18;;;8.90;97.00;;;;;;4957896;28;20042;-66
2021/11/08 12:55:03;;;;;;;8.82;4.30;;;8.80;97.00;;;;;;4955773;28;20079;-66
2021/11/08 12:57:30;;;;;;;13.00;5.47;;;8.80;97.20;;;;;;4932165;28;20031;-66
2021/11/08 13:00:02;;;;;;;11.30;5.75;;;8.90;97.40;;;;;;4951507;28;20026;-67
2021/11/08 13:02:31;;;;;;;12.15;5.88;;;8.80;97.50;;;;;;4946859;28;20479;-67
2021/11/08 13:05:00;;;;;;;13.38;6.38;;;8.80;97.60;;;;;;4951617;28;20129;-66
2021/11/08 13:07:32;;;;;;;12.95;6.40;;;8.80;97.80;;;;;;4939674;28;20038;-66
2021/11/08 13:09:58;;;;;;;15.00;7.68;;;8.80;97.90;;;;;;4944713;28;20265;-66
2021/11/08 13:12:31;;;;;;;13.23;7.95;;;8.80;98.00;;;;;;4949628;28;20602;-66
2021/11/08 13:15:05;;;;;;;15.60;9.05;;;8.80;98.10;;;;;;4938929;28;20047;-67
2021/11/08 13:17:32;;;;;;;19.25;8.23;;;8.80;98.20;;;;;;4946652;28;20054;-66
2021/11/08 13:20:04;;;;;;;17.23;8.85;;;8.80;98.20;;;;;;4946835;28;22122;-67
2021/11/08 13:22:35;;;;;;;17.67;7.72;;;8.90;98.30;;;;;;4941467;28;20043;-66
2021/11/08 13:25:14;;;;;;;13.25;7.57;;;8.80;98.20;;;;;;4933905;28;20363;-67
2021/11/08 13:27:46;;;;;;;16.10;7.82;;;8.80;98.30;;;;;;4957091;28;20113;-64
2021/11/08 13:30:11;;;;;;;15.13;8.10;;;8.80;98.40;;;;;;4950572;28;20034;-64
2021/11/08 13:32:37;;;;;;;14.57;8.63;;;8.80;98.50;;;;;;4959178;28;20114;-66
2021/11/08 13:35:25;;;;;;;18.08;8.68;;;8.80;98.50;;;;;;4959319;28;20026;-66
2021/11/08 13:38:06;;;;;;;13.65;8.20;;;8.80;98.60;;;;;;4946361;28;20031;-66
2021/11/08 13:40:35;;;;;;;15.85;7.70;;;8.80;98.50;;;;;;4955394;28;20043;-67
2021/11/08 13:43:06;;;;;;;13.30;6.47;;;8.80;98.70;;;;;;4948634;28;20227;-67
2021/11/08 13:45:47;;;;;;;14.52;8.00;;;8.80;98.60;;;;;;4939240;28;20035;-66
2021/11/08 13:48:31;;;;;;;15.60;6.43;;;8.80;98.70;;;;;;4952556;28;20023;-66
2021/11/08 13:51:06;;;;;;;17.45;6.13;;;8.80;98.70;;;;;;4961892;28;20406;-66
2021/11/08 13:53:38;;;;;;;9.73;5.40;;;8.90;98.70;;;;;;4951505;28;20412;-65
2021/11/08 13:56:10;;;;;;;10.52;4.88;;;8.90;98.70;;;;;;4949972;28;20024;-66
2021/11/08 13:58:46;;;;;;;13.85;5.35;;;8.90;98.60;;;;;;4955594;28;20061;-66
2021/11/08 14:01:12;;;;;;;14.40;4.70;;;8.90;98.60;;;;;;4958498;28;20026;-67
2021/11/08 14:03:41;;;;;;;11.65;4.38;;;9.00;98.70;;;;;;4945087;28;20026;-66
2021/11/08 14:06:07;;;;;;;9.40;3.95;;;9.00;98.70;;;;;;4952994;28;20054;-66
2021/11/08 14:08:43;;;;;;;11.25;4.32;;;9.00;98.50;;;;;;4941890;28;20057;-66
2021/11/08 14:11:09;;;;;;;8.30;3.85;;;9.10;98.70;;;;;;4943474;28;20470;-66
2021/11/08 14:13:37;;;;;;;8.10;3.83;;;9.00;98.60;;;;;;4947741;28;20045;-66
2021/11/08 14:16:05;;;;;;;11.23;3.30;;;9.00;98.50;;;;;;4947896;28;20416;-66
2021/11/08 14:18:31;;;;;;;10.75;4.05;;;9.00;98.50;;;;;;4942920;28;20115;-66
2021/11/08 14:21:10;;;;;;;7.78;3.85;;;9.00;98.40;;;;;;4960189;28;20503;-66
2021/11/08 14:23:36;;;;;;;13.52;3.97;;;9.00;98.40;;;;;;4951084;28;20027;-66
2021/11/08 14:26:17;;;;;;;9.23;3.40;;;9.00;98.40;;;;;;4954796;28;20080;-66
2021/11/08 14:28:45;;;;;;;10.43;3.72;;;8.90;98.40;;;;;;4959266;28;20404;-66
2021/11/08 14:31:18;;;;;;;7.03;3.67;;;9.00;98.50;;;;;;4950614;28;20027;-66
2021/11/08 14:33:44;;;;;;;8.18;3.67;;;9.00;98.60;;;;;;4955352;28;20042;-66
2021/11/08 14:36:25;;;;;;;11.88;4.07;;;8.90;98.60;;;;;;4955906;28;20121;-66